sensor_id;sensor_type;location;lat;lon;timestamp;P1;durP1;ratioP1;P2;durP2;ratioP2
59418;SDS011;45224;50.904;6.038;2022-11-04T00:01:18;3.40;;;2.57;;
59418;SDS011;45224;50.904;6.038;2022-11-04T00:02:48;2.53;;;2.08;;
59418;SDS011;45224;50.904;6.038;2022-11-04T00:04:20;4.73;;;2.40;;
59418;SDS011;45224;50.904;6.038;2022-11-04T00:05:52;6.95;;;2.78;;
59418;SDS011;45224;50.904;6.038;2022-11-04T00:07:22;4.40;;;2.40;;
59418;SDS011;45224;50.904;6.038;2022-11-04T00:09:28;3.10;;;2.30;;
59418;SDS011;45224;50.904;6.038;2022-11-04T00:10:59;6.03;;;2.38;;
59418;SDS011;45224;50.904;6.038;2022-11-04T00:12:51;3.55;;;2.35;;
59418;SDS011;45224;50.904;6.038;2022-11-04T00:14:22;4.05;;;2.50;;
59418;SDS011;45224;50.904;6.038;2022-11-04T00:15:52;2.50;;;1.83;;
59418;SDS011;45224;50.904;6.038;2022-11-04T00:17:41;4.40;;;1.90;;
59418;SDS011;45224;50.904;6.038;2022-11-04T00:19:11;3.63;;;2.40;;
59418;SDS011;45224;50.904;6.038;2022-11-04T00:20:42;5.63;;;2.00;;
59418;SDS011;45224;50.904;6.038;2022-11-04T00:22:31;5.72;;;2.40;;
59418;SDS011;45224;50.904;6.038;2022-11-04T00:24:20;4.47;;;2.20;;
59418;SDS011;45224;50.904;6.038;2022-11-04T00:26:09;4.13;;;2.42;;
59418;SDS011;45224;50.904;6.038;2022-11-04T00:28:05;2.30;;;1.98;;
59418;SDS011;45224;50.904;6.038;2022-11-04T00:29:58;3.95;;;1.90;;
59418;SDS011;45224;50.904;6.038;2022-11-04T00:31:29;5.05;;;2.10;;
59418;SDS011;45224;50.904;6.038;2022-11-04T00:33:18;6.40;;;2.20;;
59418;SDS011;45224;50.904;6.038;2022-11-04T00:34:54;6.57;;;1.77;;
59418;SDS011;45224;50.904;6.038;2022-11-04T00:36:25;7.37;;;2.40;;
59418;SDS011;45224;50.904;6.038;2022-11-04T00:37:55;2.90;;;1.90;;
59418;SDS011;45224;50.904;6.038;2022-11-04T00:39:26;7.27;;;2.70;;
59418;SDS011;45224;50.904;6.038;2022-11-04T00:40:56;4.10;;;1.87;;
59418;SDS011;45224;50.904;6.038;2022-11-04T00:42:27;6.13;;;2.03;;
59418;SDS011;45224;50.904;6.038;2022-11-04T00:43:58;6.33;;;2.20;;
59418;SDS011;45224;50.904;6.038;2022-11-04T00:45:30;4.97;;;2.17;;
59418;SDS011;45224;50.904;6.038;2022-11-04T00:47:00;5.67;;;1.80;;
59418;SDS011;45224;50.904;6.038;2022-11-04T00:48:31;5.10;;;2.37;;
59418;SDS011;45224;50.904;6.038;2022-11-04T00:50:01;5.03;;;1.83;;
59418;SDS011;45224;50.904;6.038;2022-11-04T00:51:32;2.63;;;1.83;;
59418;SDS011;45224;50.904;6.038;2022-11-04T00:53:02;4.70;;;1.83;;
59418;SDS011;45224;50.904;6.038;2022-11-04T00:54:33;5.45;;;1.90;;
59418;SDS011;45224;50.904;6.038;2022-11-04T00:56:03;5.00;;;1.80;;
59418;SDS011;45224;50.904;6.038;2022-11-04T00:57:34;3.28;;;1.73;;
59418;SDS011;45224;50.904;6.038;2022-11-04T00:59:04;4.43;;;1.57;;
59418;SDS011;45224;50.904;6.038;2022-11-04T01:00:36;6.05;;;1.70;;
59418;SDS011;45224;50.904;6.038;2022-11-04T01:03:38;4.22;;;1.40;;
59418;SDS011;45224;50.904;6.038;2022-11-04T01:05:09;8.10;;;1.33;;
59418;SDS011;45224;50.904;6.038;2022-11-04T01:06:39;3.80;;;1.57;;
59418;SDS011;45224;50.904;6.038;2022-11-04T01:08:09;3.33;;;1.53;;
59418;SDS011;45224;50.904;6.038;2022-11-04T01:09:40;5.03;;;1.40;;
59418;SDS011;45224;50.904;6.038;2022-11-04T01:11:11;4.90;;;1.50;;
59418;SDS011;45224;50.904;6.038;2022-11-04T01:12:42;5.25;;;1.80;;
59418;SDS011;45224;50.904;6.038;2022-11-04T01:14:13;3.90;;;1.40;;
59418;SDS011;45224;50.904;6.038;2022-11-04T01:15:44;2.47;;;1.38;;
59418;SDS011;45224;50.904;6.038;2022-11-04T01:17:14;5.57;;;1.48;;
59418;SDS011;45224;50.904;6.038;2022-11-04T01:18:46;4.65;;;1.60;;
59418;SDS011;45224;50.904;6.038;2022-11-04T01:20:16;10.07;;;1.92;;
59418;SDS011;45224;50.904;6.038;2022-11-04T01:21:50;4.30;;;1.52;;
59418;SDS011;45224;50.904;6.038;2022-11-04T01:23:21;7.78;;;1.75;;
59418;SDS011;45224;50.904;6.038;2022-11-04T01:24:51;2.30;;;1.33;;
59418;SDS011;45224;50.904;6.038;2022-11-04T01:27:54;4.90;;;1.55;;
59418;SDS011;45224;50.904;6.038;2022-11-04T01:29:25;6.28;;;1.50;;
59418;SDS011;45224;50.904;6.038;2022-11-04T01:30:55;6.30;;;1.87;;
59418;SDS011;45224;50.904;6.038;2022-11-04T01:32:26;7.23;;;1.67;;
59418;SDS011;45224;50.904;6.038;2022-11-04T01:33:57;7.43;;;1.98;;
59418;SDS011;45224;50.904;6.038;2022-11-04T01:35:28;11.20;;;2.05;;
59418;SDS011;45224;50.904;6.038;2022-11-04T01:36:58;4.87;;;1.50;;
59418;SDS011;45224;50.904;6.038;2022-11-04T01:38:29;12.07;;;1.83;;
59418;SDS011;45224;50.904;6.038;2022-11-04T01:39:59;4.37;;;1.70;;
59418;SDS011;45224;50.904;6.038;2022-11-04T01:41:30;8.13;;;1.80;;
59418;SDS011;45224;50.904;6.038;2022-11-04T01:43:02;3.90;;;1.58;;
59418;SDS011;45224;50.904;6.038;2022-11-04T01:46:23;8.20;;;1.60;;
59418;SDS011;45224;50.904;6.038;2022-11-04T01:47:58;5.15;;;1.52;;
59418;SDS011;45224;50.904;6.038;2022-11-04T01:49:41;6.85;;;1.45;;
59418;SDS011;45224;50.904;6.038;2022-11-04T01:51:13;5.25;;;1.60;;
59418;SDS011;45224;50.904;6.038;2022-11-04T01:53:05;4.97;;;1.48;;
59418;SDS011;45224;50.904;6.038;2022-11-04T01:54:39;8.20;;;1.50;;
59418;SDS011;45224;50.904;6.038;2022-11-04T01:56:12;7.78;;;1.70;;
59418;SDS011;45224;50.904;6.038;2022-11-04T01:57:45;6.50;;;1.60;;
59418;SDS011;45224;50.904;6.038;2022-11-04T01:59:19;7.88;;;2.13;;
59418;SDS011;45224;50.904;6.038;2022-11-04T02:00:56;3.85;;;1.70;;
59418;SDS011;45224;50.904;6.038;2022-11-04T02:02:27;12.47;;;1.90;;
59418;SDS011;45224;50.904;6.038;2022-11-04T02:03:58;6.67;;;1.50;;
59418;SDS011;45224;50.904;6.038;2022-11-04T02:05:48;4.50;;;1.50;;
59418;SDS011;45224;50.904;6.038;2022-11-04T02:07:19;8.35;;;1.90;;
59418;SDS011;45224;50.904;6.038;2022-11-04T02:08:50;4.43;;;1.42;;
59418;SDS011;45224;50.904;6.038;2022-11-04T02:10:21;11.20;;;1.63;;
59418;SDS011;45224;50.904;6.038;2022-11-04T02:11:55;5.53;;;1.67;;
59418;SDS011;45224;50.904;6.038;2022-11-04T02:13:45;8.82;;;1.67;;
59418;SDS011;45224;50.904;6.038;2022-11-04T02:15:16;7.30;;;1.43;;
59418;SDS011;45224;50.904;6.038;2022-11-04T02:18:46;4.68;;;1.58;;
59418;SDS011;45224;50.904;6.038;2022-11-04T02:28:16;5.95;;;1.70;;
59418;SDS011;45224;50.904;6.038;2022-11-04T02:30:07;6.45;;;1.42;;
59418;SDS011;45224;50.904;6.038;2022-11-04T02:33:49;10.05;;;1.88;;
59418;SDS011;45224;50.904;6.038;2022-11-04T02:37:19;2.65;;;1.30;;
59418;SDS011;45224;50.904;6.038;2022-11-04T02:39:06;5.40;;;1.35;;
59418;SDS011;45224;50.904;6.038;2022-11-04T02:42:29;6.50;;;1.30;;
59418;SDS011;45224;50.904;6.038;2022-11-04T02:44:11;7.68;;;1.52;;
59418;SDS011;45224;50.904;6.038;2022-11-04T02:45:48;10.50;;;1.80;;
59418;SDS011;45224;50.904;6.038;2022-11-04T02:47:23;5.22;;;1.50;;
59418;SDS011;45224;50.904;6.038;2022-11-04T02:50:33;7.60;;;1.35;;
59418;SDS011;45224;50.904;6.038;2022-11-04T02:52:11;6.93;;;1.90;;
59418;SDS011;45224;50.904;6.038;2022-11-04T02:53:59;11.23;;;2.08;;
59418;SDS011;45224;50.904;6.038;2022-11-04T02:55:37;4.85;;;1.50;;
59418;SDS011;45224;50.904;6.038;2022-11-04T02:57:12;8.35;;;1.63;;
59418;SDS011;45224;50.904;6.038;2022-11-04T02:58:54;5.65;;;1.35;;
59418;SDS011;45224;50.904;6.038;2022-11-04T03:00:28;9.45;;;1.70;;
59418;SDS011;45224;50.904;6.038;2022-11-04T03:02:01;7.32;;;1.63;;
59418;SDS011;45224;50.904;6.038;2022-11-04T03:03:39;6.10;;;1.60;;
59418;SDS011;45224;50.904;6.038;2022-11-04T03:05:14;5.75;;;1.58;;
59418;SDS011;45224;50.904;6.038;2022-11-04T03:06:49;6.25;;;1.40;;
59418;SDS011;45224;50.904;6.038;2022-11-04T03:08:24;6.57;;;1.48;;
59418;SDS011;45224;50.904;6.038;2022-11-04T03:10:00;8.80;;;1.70;;
59418;SDS011;45224;50.904;6.038;2022-11-04T03:11:36;6.68;;;1.65;;
59418;SDS011;45224;50.904;6.038;2022-11-04T03:13:11;8.88;;;1.58;;
59418;SDS011;45224;50.904;6.038;2022-11-04T03:14:50;10.13;;;1.45;;
59418;SDS011;45224;50.904;6.038;2022-11-04T03:16:28;9.43;;;1.73;;
59418;SDS011;45224;50.904;6.038;2022-11-04T03:18:23;7.63;;;1.92;;
59418;SDS011;45224;50.904;6.038;2022-11-04T03:19:59;6.28;;;1.70;;
59418;SDS011;45224;50.904;6.038;2022-11-04T03:21:36;7.30;;;1.63;;
59418;SDS011;45224;50.904;6.038;2022-11-04T03:23:10;6.10;;;1.58;;
59418;SDS011;45224;50.904;6.038;2022-11-04T03:24:41;4.60;;;1.38;;
59418;SDS011;45224;50.904;6.038;2022-11-04T03:26:21;7.05;;;1.50;;
59418;SDS011;45224;50.904;6.038;2022-11-04T03:28:02;5.38;;;1.70;;
59418;SDS011;45224;50.904;6.038;2022-11-04T03:30:11;10.18;;;2.05;;
59418;SDS011;45224;50.904;6.038;2022-11-04T03:33:39;5.97;;;1.70;;
59418;SDS011;45224;50.904;6.038;2022-11-04T03:35:16;6.40;;;1.42;;
59418;SDS011;45224;50.904;6.038;2022-11-04T03:36:47;11.77;;;2.22;;
59418;SDS011;45224;50.904;6.038;2022-11-04T03:38:18;3.37;;;1.60;;
59418;SDS011;45224;50.904;6.038;2022-11-04T03:39:50;3.88;;;1.42;;
59418;SDS011;45224;50.904;6.038;2022-11-04T03:41:42;6.87;;;1.80;;
59418;SDS011;45224;50.904;6.038;2022-11-04T03:43:16;6.82;;;1.55;;
59418;SDS011;45224;50.904;6.038;2022-11-04T03:44:55;7.50;;;1.52;;
59418;SDS011;45224;50.904;6.038;2022-11-04T03:46:27;8.63;;;1.65;;
59418;SDS011;45224;50.904;6.038;2022-11-04T03:47:57;7.53;;;1.70;;
59418;SDS011;45224;50.904;6.038;2022-11-04T03:49:29;7.82;;;2.03;;
59418;SDS011;45224;50.904;6.038;2022-11-04T03:50:59;5.17;;;1.43;;
59418;SDS011;45224;50.904;6.038;2022-11-04T03:52:30;6.43;;;1.50;;
59418;SDS011;45224;50.904;6.038;2022-11-04T03:54:00;7.47;;;1.90;;
59418;SDS011;45224;50.904;6.038;2022-11-04T03:59:33;5.88;;;1.38;;
59418;SDS011;45224;50.904;6.038;2022-11-04T04:03:06;4.65;;;1.30;;
59418;SDS011;45224;50.904;6.038;2022-11-04T04:04:54;7.82;;;1.60;;
59418;SDS011;45224;50.904;6.038;2022-11-04T04:06:30;5.88;;;1.70;;
59418;SDS011;45224;50.904;6.038;2022-11-04T04:08:09;4.47;;;1.30;;
59418;SDS011;45224;50.904;6.038;2022-11-04T04:09:45;8.70;;;1.80;;
59418;SDS011;45224;50.904;6.038;2022-11-04T04:17:23;9.25;;;1.52;;
59418;SDS011;45224;50.904;6.038;2022-11-04T04:19:09;11.38;;;1.95;;
59418;SDS011;45224;50.904;6.038;2022-11-04T04:20:42;8.65;;;1.65;;
59418;SDS011;45224;50.904;6.038;2022-11-04T04:22:18;4.20;;;1.30;;
59418;SDS011;45224;50.904;6.038;2022-11-04T04:23:52;8.93;;;2.10;;
59418;SDS011;45224;50.904;6.038;2022-11-04T04:25:46;3.90;;;1.60;;
59418;SDS011;45224;50.904;6.038;2022-11-04T04:27:36;3.60;;;1.23;;
59418;SDS011;45224;50.904;6.038;2022-11-04T04:29:08;10.02;;;1.90;;
59418;SDS011;45224;50.904;6.038;2022-11-04T04:30:40;3.58;;;1.50;;
59418;SDS011;45224;50.904;6.038;2022-11-04T04:32:12;7.15;;;1.67;;
59418;SDS011;45224;50.904;6.038;2022-11-04T04:33:45;6.75;;;1.20;;
59418;SDS011;45224;50.904;6.038;2022-11-04T04:35:15;4.80;;;1.20;;
59418;SDS011;45224;50.904;6.038;2022-11-04T04:37:07;5.00;;;1.73;;
59418;SDS011;45224;50.904;6.038;2022-11-04T04:38:42;6.65;;;1.60;;
59418;SDS011;45224;50.904;6.038;2022-11-04T04:40:32;9.13;;;2.25;;
59418;SDS011;45224;50.904;6.038;2022-11-04T04:42:22;5.85;;;1.60;;
59418;SDS011;45224;50.904;6.038;2022-11-04T04:44:22;7.50;;;1.40;;
59418;SDS011;45224;50.904;6.038;2022-11-04T04:46:14;11.40;;;1.70;;
59418;SDS011;45224;50.904;6.038;2022-11-04T04:47:44;5.70;;;2.22;;
59418;SDS011;45224;50.904;6.038;2022-11-04T04:49:15;5.45;;;1.50;;
59418;SDS011;45224;50.904;6.038;2022-11-04T04:50:47;6.83;;;1.47;;
59418;SDS011;45224;50.904;6.038;2022-11-04T04:52:21;8.18;;;1.50;;
59418;SDS011;45224;50.904;6.038;2022-11-04T04:53:53;5.63;;;1.42;;
59418;SDS011;45224;50.904;6.038;2022-11-04T04:55:23;8.13;;;1.40;;
59418;SDS011;45224;50.904;6.038;2022-11-04T04:56:54;8.30;;;1.47;;
59418;SDS011;45224;50.904;6.038;2022-11-04T04:58:24;5.53;;;1.40;;
59418;SDS011;45224;50.904;6.038;2022-11-04T04:59:55;8.43;;;1.63;;
59418;SDS011;45224;50.904;6.038;2022-11-04T05:01:25;7.67;;;1.30;;
59418;SDS011;45224;50.904;6.038;2022-11-04T05:02:55;5.07;;;1.83;;
59418;SDS011;45224;50.904;6.038;2022-11-04T05:04:26;4.20;;;1.67;;
59418;SDS011;45224;50.904;6.038;2022-11-04T05:05:58;9.27;;;1.60;;
59418;SDS011;45224;50.904;6.038;2022-11-04T05:07:29;7.85;;;1.25;;
59418;SDS011;45224;50.904;6.038;2022-11-04T05:08:59;7.80;;;1.77;;
59418;SDS011;45224;50.904;6.038;2022-11-04T05:10:29;4.63;;;1.50;;
59418;SDS011;45224;50.904;6.038;2022-11-04T05:12:00;3.43;;;1.57;;
59418;SDS011;45224;50.904;6.038;2022-11-04T05:13:31;5.55;;;1.50;;
59418;SDS011;45224;50.904;6.038;2022-11-04T05:15:01;6.83;;;1.70;;
59418;SDS011;45224;50.904;6.038;2022-11-04T05:16:31;13.93;;;1.90;;
59418;SDS011;45224;50.904;6.038;2022-11-04T05:18:02;4.07;;;1.33;;
59418;SDS011;45224;50.904;6.038;2022-11-04T05:19:33;10.10;;;1.53;;
59418;SDS011;45224;50.904;6.038;2022-11-04T05:21:06;3.17;;;1.40;;
59418;SDS011;45224;50.904;6.038;2022-11-04T05:22:40;9.23;;;1.80;;
59418;SDS011;45224;50.904;6.038;2022-11-04T05:24:10;5.83;;;2.00;;
59418;SDS011;45224;50.904;6.038;2022-11-04T05:25:41;7.97;;;1.20;;
59418;SDS011;45224;50.904;6.038;2022-11-04T05:27:11;6.22;;;1.63;;
59418;SDS011;45224;50.904;6.038;2022-11-04T05:28:42;5.57;;;1.43;;
59418;SDS011;45224;50.904;6.038;2022-11-04T05:30:12;6.10;;;1.50;;
59418;SDS011;45224;50.904;6.038;2022-11-04T05:31:43;8.13;;;1.63;;
59418;SDS011;45224;50.904;6.038;2022-11-04T05:33:13;5.50;;;1.83;;
59418;SDS011;45224;50.904;6.038;2022-11-04T05:34:43;3.17;;;1.30;;
59418;SDS011;45224;50.904;6.038;2022-11-04T05:36:14;4.63;;;1.47;;
59418;SDS011;45224;50.904;6.038;2022-11-04T05:37:46;6.55;;;1.70;;
59418;SDS011;45224;50.904;6.038;2022-11-04T05:39:16;4.10;;;1.47;;
59418;SDS011;45224;50.904;6.038;2022-11-04T05:40:46;7.97;;;1.77;;
59418;SDS011;45224;50.904;6.038;2022-11-04T05:42:17;4.53;;;1.67;;
59418;SDS011;45224;50.904;6.038;2022-11-04T05:43:47;4.67;;;1.73;;
59418;SDS011;45224;50.904;6.038;2022-11-04T05:45:18;4.50;;;1.40;;
59418;SDS011;45224;50.904;6.038;2022-11-04T05:46:48;8.70;;;1.80;;
59418;SDS011;45224;50.904;6.038;2022-11-04T05:48:19;5.10;;;1.30;;
59418;SDS011;45224;50.904;6.038;2022-11-04T05:49:49;5.20;;;1.60;;
59418;SDS011;45224;50.904;6.038;2022-11-04T05:51:21;9.63;;;1.50;;
59418;SDS011;45224;50.904;6.038;2022-11-04T05:52:55;3.83;;;1.25;;
59418;SDS011;45224;50.904;6.038;2022-11-04T05:54:27;5.85;;;1.50;;
59418;SDS011;45224;50.904;6.038;2022-11-04T05:55:57;4.27;;;1.30;;
59418;SDS011;45224;50.904;6.038;2022-11-04T05:57:27;8.43;;;1.90;;
59418;SDS011;45224;50.904;6.038;2022-11-04T05:58:58;6.50;;;1.73;;
59418;SDS011;45224;50.904;6.038;2022-11-04T06:00:28;5.63;;;1.77;;
59418;SDS011;45224;50.904;6.038;2022-11-04T06:01:59;9.20;;;2.13;;
59418;SDS011;45224;50.904;6.038;2022-11-04T06:03:29;7.90;;;2.23;;
59418;SDS011;45224;50.904;6.038;2022-11-04T06:05:00;8.13;;;1.70;;
59418;SDS011;45224;50.904;6.038;2022-11-04T06:06:31;6.77;;;2.07;;
59418;SDS011;45224;50.904;6.038;2022-11-04T06:08:03;4.88;;;1.40;;
59418;SDS011;45224;50.904;6.038;2022-11-04T06:09:33;4.90;;;1.60;;
59418;SDS011;45224;50.904;6.038;2022-11-04T06:11:10;7.53;;;1.80;;
59418;SDS011;45224;50.904;6.038;2022-11-04T06:12:41;4.97;;;1.60;;
59418;SDS011;45224;50.904;6.038;2022-11-04T06:14:11;4.40;;;1.83;;
59418;SDS011;45224;50.904;6.038;2022-11-04T06:15:42;10.60;;;2.17;;
59418;SDS011;45224;50.904;6.038;2022-11-04T06:17:16;6.80;;;2.23;;
59418;SDS011;45224;50.904;6.038;2022-11-04T06:18:48;8.10;;;2.38;;
59418;SDS011;45224;50.904;6.038;2022-11-04T06:20:19;9.63;;;2.08;;
59418;SDS011;45224;50.904;6.038;2022-11-04T06:21:49;8.73;;;2.67;;
59418;SDS011;45224;50.904;6.038;2022-11-04T06:23:19;7.80;;;2.37;;
59418;SDS011;45224;50.904;6.038;2022-11-04T06:24:50;10.00;;;2.80;;
59418;SDS011;45224;50.904;6.038;2022-11-04T06:26:21;12.40;;;3.90;;
59418;SDS011;45224;50.904;6.038;2022-11-04T06:27:52;12.32;;;3.50;;
59418;SDS011;45224;50.904;6.038;2022-11-04T06:29:22;7.00;;;2.93;;
59418;SDS011;45224;50.904;6.038;2022-11-04T06:30:52;8.67;;;4.13;;
59418;SDS011;45224;50.904;6.038;2022-11-04T06:32:23;8.30;;;3.63;;
59418;SDS011;45224;50.904;6.038;2022-11-04T06:33:53;13.73;;;4.17;;
59418;SDS011;45224;50.904;6.038;2022-11-04T06:35:24;9.43;;;2.53;;
59418;SDS011;45224;50.904;6.038;2022-11-04T06:36:54;8.90;;;2.43;;
59418;SDS011;45224;50.904;6.038;2022-11-04T06:38:25;5.00;;;2.10;;
59418;SDS011;45224;50.904;6.038;2022-11-04T06:39:55;6.90;;;1.98;;
59418;SDS011;45224;50.904;6.038;2022-11-04T06:41:26;4.93;;;1.70;;
59418;SDS011;45224;50.904;6.038;2022-11-04T06:42:56;4.57;;;1.70;;
59418;SDS011;45224;50.904;6.038;2022-11-04T06:44:27;6.93;;;1.53;;
59418;SDS011;45224;50.904;6.038;2022-11-04T06:45:58;5.77;;;1.57;;
59418;SDS011;45224;50.904;6.038;2022-11-04T06:47:30;5.63;;;1.67;;
59418;SDS011;45224;50.904;6.038;2022-11-04T06:49:00;9.73;;;2.00;;
59418;SDS011;45224;50.904;6.038;2022-11-04T06:50:31;9.32;;;1.60;;
59418;SDS011;45224;50.904;6.038;2022-11-04T06:52:01;3.50;;;1.57;;
59418;SDS011;45224;50.904;6.038;2022-11-04T06:53:32;7.57;;;1.93;;
59418;SDS011;45224;50.904;6.038;2022-11-04T06:55:02;6.83;;;1.73;;
59418;SDS011;45224;50.904;6.038;2022-11-04T06:56:33;5.82;;;1.85;;
59418;SDS011;45224;50.904;6.038;2022-11-04T06:58:04;8.10;;;2.10;;
59418;SDS011;45224;50.904;6.038;2022-11-04T06:59:34;8.47;;;2.20;;
59418;SDS011;45224;50.904;6.038;2022-11-04T07:01:04;6.23;;;1.80;;
59418;SDS011;45224;50.904;6.038;2022-11-04T07:02:35;8.50;;;2.20;;
59418;SDS011;45224;50.904;6.038;2022-11-04T07:04:06;7.35;;;1.88;;
59418;SDS011;45224;50.904;6.038;2022-11-04T07:05:36;5.13;;;1.53;;
59418;SDS011;45224;50.904;6.038;2022-11-04T07:07:07;6.73;;;1.50;;
59418;SDS011;45224;50.904;6.038;2022-11-04T07:08:37;4.47;;;1.57;;
59418;SDS011;45224;50.904;6.038;2022-11-04T07:10:09;6.20;;;1.60;;
59418;SDS011;45224;50.904;6.038;2022-11-04T07:11:41;6.60;;;1.70;;
59418;SDS011;45224;50.904;6.038;2022-11-04T07:13:12;9.90;;;1.58;;
59418;SDS011;45224;50.904;6.038;2022-11-04T07:14:43;8.00;;;1.77;;
59418;SDS011;45224;50.904;6.038;2022-11-04T07:16:13;6.57;;;1.63;;
59418;SDS011;45224;50.904;6.038;2022-11-04T07:17:45;6.78;;;2.00;;
59418;SDS011;45224;50.904;6.038;2022-11-04T07:19:16;10.67;;;2.60;;
59418;SDS011;45224;50.904;6.038;2022-11-04T07:20:46;7.53;;;2.47;;
59418;SDS011;45224;50.904;6.038;2022-11-04T07:22:16;8.53;;;2.53;;
59418;SDS011;45224;50.904;6.038;2022-11-04T07:23:47;11.17;;;2.83;;
59418;SDS011;45224;50.904;6.038;2022-11-04T07:25:17;8.80;;;2.53;;
59418;SDS011;45224;50.904;6.038;2022-11-04T07:26:48;9.07;;;2.30;;
59418;SDS011;45224;50.904;6.038;2022-11-04T07:28:18;6.47;;;2.10;;
59418;SDS011;45224;50.904;6.038;2022-11-04T07:29:49;7.72;;;1.75;;
59418;SDS011;45224;50.904;6.038;2022-11-04T07:31:20;5.67;;;1.90;;
59418;SDS011;45224;50.904;6.038;2022-11-04T07:32:51;10.48;;;1.90;;
59418;SDS011;45224;50.904;6.038;2022-11-04T07:34:22;13.48;;;2.45;;
59418;SDS011;45224;50.904;6.038;2022-11-04T07:35:53;7.13;;;2.00;;
59418;SDS011;45224;50.904;6.038;2022-11-04T07:37:23;7.38;;;2.22;;
59418;SDS011;45224;50.904;6.038;2022-11-04T07:38:54;9.03;;;2.17;;
59418;SDS011;45224;50.904;6.038;2022-11-04T07:40:24;6.50;;;1.90;;
59418;SDS011;45224;50.904;6.038;2022-11-04T07:41:55;8.80;;;2.23;;
59418;SDS011;45224;50.904;6.038;2022-11-04T07:43:25;6.43;;;2.23;;
59418;SDS011;45224;50.904;6.038;2022-11-04T07:44:56;7.38;;;2.03;;
59418;SDS011;45224;50.904;6.038;2022-11-04T07:46:27;7.40;;;2.47;;
59418;SDS011;45224;50.904;6.038;2022-11-04T07:47:57;6.90;;;1.77;;
59418;SDS011;45224;50.904;6.038;2022-11-04T07:49:28;11.43;;;2.33;;
59418;SDS011;45224;50.904;6.038;2022-11-04T07:50:58;8.67;;;2.33;;
59418;SDS011;45224;50.904;6.038;2022-11-04T07:52:29;6.68;;;2.03;;
59418;SDS011;45224;50.904;6.038;2022-11-04T07:54:00;7.13;;;2.27;;
59418;SDS011;45224;50.904;6.038;2022-11-04T07:55:30;10.50;;;2.33;;
59418;SDS011;45224;50.904;6.038;2022-11-04T07:57:01;8.63;;;2.30;;
59418;SDS011;45224;50.904;6.038;2022-11-04T07:58:31;8.10;;;2.23;;
59418;SDS011;45224;50.904;6.038;2022-11-04T08:00:03;7.97;;;1.98;;
59418;SDS011;45224;50.904;6.038;2022-11-04T08:01:42;5.55;;;1.80;;
59418;SDS011;45224;50.904;6.038;2022-11-04T08:03:13;7.13;;;1.98;;
59418;SDS011;45224;50.904;6.038;2022-11-04T08:04:44;6.72;;;2.38;;
59418;SDS011;45224;50.904;6.038;2022-11-04T08:06:15;8.67;;;2.07;;
59418;SDS011;45224;50.904;6.038;2022-11-04T08:07:47;7.88;;;2.15;;
59418;SDS011;45224;50.904;6.038;2022-11-04T08:09:17;7.23;;;1.90;;
59418;SDS011;45224;50.904;6.038;2022-11-04T08:11:07;6.80;;;1.80;;
59418;SDS011;45224;50.904;6.038;2022-11-04T08:12:39;7.85;;;1.73;;
59418;SDS011;45224;50.904;6.038;2022-11-04T08:14:10;4.97;;;1.80;;
59418;SDS011;45224;50.904;6.038;2022-11-04T08:15:40;7.80;;;1.97;;
59418;SDS011;45224;50.904;6.038;2022-11-04T08:17:11;5.13;;;2.43;;
59418;SDS011;45224;50.904;6.038;2022-11-04T08:18:41;6.17;;;2.70;;
59418;SDS011;45224;50.904;6.038;2022-11-04T08:20:12;8.00;;;2.30;;
59418;SDS011;45224;50.904;6.038;2022-11-04T08:21:43;6.93;;;2.20;;
59418;SDS011;45224;50.904;6.038;2022-11-04T08:23:13;12.77;;;1.97;;
59418;SDS011;45224;50.904;6.038;2022-11-04T08:24:44;8.90;;;1.77;;
59418;SDS011;45224;50.904;6.038;2022-11-04T08:26:17;7.78;;;1.80;;
59418;SDS011;45224;50.904;6.038;2022-11-04T08:27:48;9.45;;;2.15;;
59418;SDS011;45224;50.904;6.038;2022-11-04T08:29:19;5.97;;;2.10;;
59418;SDS011;45224;50.904;6.038;2022-11-04T08:32:24;4.93;;;1.60;;
59418;SDS011;45224;50.904;6.038;2022-11-04T08:33:54;6.47;;;1.70;;
59418;SDS011;45224;50.904;6.038;2022-11-04T08:35:26;6.70;;;1.92;;
59418;SDS011;45224;50.904;6.038;2022-11-04T08:36:57;9.87;;;1.70;;
59418;SDS011;45224;50.904;6.038;2022-11-04T08:38:29;12.80;;;1.80;;
59418;SDS011;45224;50.904;6.038;2022-11-04T08:39:59;7.63;;;1.80;;
59418;SDS011;45224;50.904;6.038;2022-11-04T08:41:30;5.40;;;1.63;;
59418;SDS011;45224;50.904;6.038;2022-11-04T08:43:01;6.88;;;1.73;;
59418;SDS011;45224;50.904;6.038;2022-11-04T08:44:32;9.15;;;2.08;;
59418;SDS011;45224;50.904;6.038;2022-11-04T08:46:04;7.93;;;1.43;;
59418;SDS011;45224;50.904;6.038;2022-11-04T08:47:37;8.73;;;1.80;;
59418;SDS011;45224;50.904;6.038;2022-11-04T08:49:08;5.85;;;1.75;;
59418;SDS011;45224;50.904;6.038;2022-11-04T08:50:38;11.60;;;1.83;;
59418;SDS011;45224;50.904;6.038;2022-11-04T08:52:09;9.77;;;1.70;;
59418;SDS011;45224;50.904;6.038;2022-11-04T08:53:39;14.30;;;2.30;;
59418;SDS011;45224;50.904;6.038;2022-11-04T08:55:10;5.03;;;1.67;;
59418;SDS011;45224;50.904;6.038;2022-11-04T08:56:40;12.30;;;1.90;;
59418;SDS011;45224;50.904;6.038;2022-11-04T08:58:11;6.05;;;1.67;;
59418;SDS011;45224;50.904;6.038;2022-11-04T08:59:42;2.97;;;1.20;;
59418;SDS011;45224;50.904;6.038;2022-11-04T09:01:12;5.87;;;1.67;;
59418;SDS011;45224;50.904;6.038;2022-11-04T09:02:43;5.40;;;1.88;;
59418;SDS011;45224;50.904;6.038;2022-11-04T09:04:13;6.97;;;1.80;;
59418;SDS011;45224;50.904;6.038;2022-11-04T09:05:44;8.30;;;1.87;;
59418;SDS011;45224;50.904;6.038;2022-11-04T09:07:16;6.10;;;1.38;;
59418;SDS011;45224;50.904;6.038;2022-11-04T09:08:46;3.50;;;1.47;;
59418;SDS011;45224;50.904;6.038;2022-11-04T09:10:17;5.28;;;1.50;;
59418;SDS011;45224;50.904;6.038;2022-11-04T09:11:48;7.83;;;1.60;;
59418;SDS011;45224;50.904;6.038;2022-11-04T09:13:19;7.03;;;1.77;;
59418;SDS011;45224;50.904;6.038;2022-11-04T09:14:49;6.43;;;1.47;;
59418;SDS011;45224;50.904;6.038;2022-11-04T09:16:20;7.63;;;1.00;;
59418;SDS011;45224;50.904;6.038;2022-11-04T09:17:50;8.07;;;1.50;;
59418;SDS011;45224;50.904;6.038;2022-11-04T09:19:20;9.77;;;1.50;;
59418;SDS011;45224;50.904;6.038;2022-11-04T09:20:51;5.50;;;1.30;;
59418;SDS011;45224;50.904;6.038;2022-11-04T09:22:21;8.07;;;1.30;;
59418;SDS011;45224;50.904;6.038;2022-11-04T09:23:52;8.33;;;1.30;;
59418;SDS011;45224;50.904;6.038;2022-11-04T09:25:23;5.30;;;1.20;;
59418;SDS011;45224;50.904;6.038;2022-11-04T09:26:53;9.02;;;1.40;;
59418;SDS011;45224;50.904;6.038;2022-11-04T09:28:24;4.53;;;1.60;;
59418;SDS011;45224;50.904;6.038;2022-11-04T09:29:55;6.10;;;1.48;;
59418;SDS011;45224;50.904;6.038;2022-11-04T09:31:26;6.77;;;1.40;;
59418;SDS011;45224;50.904;6.038;2022-11-04T09:32:58;4.78;;;1.13;;
59418;SDS011;45224;50.904;6.038;2022-11-04T09:34:29;6.15;;;1.45;;
59418;SDS011;45224;50.904;6.038;2022-11-04T09:36:00;6.33;;;1.43;;
59418;SDS011;45224;50.904;6.038;2022-11-04T09:37:30;4.40;;;1.10;;
59418;SDS011;45224;50.904;6.038;2022-11-04T09:39:01;4.50;;;1.13;;
59418;SDS011;45224;50.904;6.038;2022-11-04T09:40:32;10.80;;;1.17;;
59418;SDS011;45224;50.904;6.038;2022-11-04T09:45:44;6.80;;;1.27;;
59418;SDS011;45224;50.904;6.038;2022-11-04T09:47:15;6.22;;;1.25;;
59418;SDS011;45224;50.904;6.038;2022-11-04T09:50:21;4.05;;;1.10;;
59418;SDS011;45224;50.904;6.038;2022-11-04T09:51:55;5.97;;;1.08;;
59418;SDS011;45224;50.904;6.038;2022-11-04T09:53:41;3.25;;;1.42;;
59418;SDS011;45224;50.904;6.038;2022-11-04T09:55:18;4.07;;;0.98;;
59418;SDS011;45224;50.904;6.038;2022-11-04T09:56:56;2.13;;;0.88;;
59418;SDS011;45224;50.904;6.038;2022-11-04T09:58:29;3.42;;;0.73;;
59418;SDS011;45224;50.904;6.038;2022-11-04T10:00:05;5.80;;;0.90;;
59418;SDS011;45224;50.904;6.038;2022-11-04T10:03:44;3.03;;;0.80;;
59418;SDS011;45224;50.904;6.038;2022-11-04T10:25:41;4.40;;;1.00;;
59418;SDS011;45224;50.904;6.038;2022-11-04T10:27:20;4.72;;;0.98;;